Time;durP1;ratioP1;P1;durP2;ratioP2;P2;SDS_P1;SDS_P2;PMS_P1;PMS_P2;Temp;Humidity;BMP_temperature;BMP_pressure;BME280_temperature;BME280_humidity;BME280_pressure;Samples;Min_cycle;Max_cycle;Signal;HPM_P1;HPM_P2
2023/11/23 00:01:37;;;;;;;25.77;15.18;;;10.20;99.90;;;;;;5053491;28;20529;-91
2023/11/23 00:04:03;;;;;;;26.50;14.90;;;10.10;99.90;;;;;;5053745;28;20505;-91
2023/11/23 00:06:32;;;;;;;25.52;13.40;;;9.10;99.90;;;;;;5045062;28;20037;-90
2023/11/23 00:09:06;;;;;;;20.95;14.13;;;10.20;99.90;;;;;;5040400;28;20033;-92
2023/11/23 00:11:31;;;;;;;21.35;14.57;;;9.10;99.90;;;;;;5041900;28;20023;-92
2023/11/23 00:13:57;;;;;;;20.15;14.70;;;9.20;99.90;;;;;;5033899;28;20108;-90
2023/11/23 00:16:22;;;;;;;26.40;14.45;;;10.00;99.90;;;;;;5033071;28;20072;-91
2023/11/23 00:18:48;;;;;;;26.35;15.30;;;9.20;99.90;;;;;;5033142;28;20029;-90
2023/11/23 00:21:22;;;;;;;28.35;15.20;;;8.90;99.90;;;;;;5048449;28;20041;-90
2023/11/23 00:23:48;;;;;;;25.35;14.82;;;9.20;99.90;;;;;;5039035;28;20030;-91
2023/11/23 00:26:14;;;;;;;23.90;13.60;;;10.60;99.90;;;;;;5037030;28;20116;-92
2023/11/23 00:28:39;;;;;;;27.27;14.45;;;10.00;99.90;;;;;;5034113;28;20104;-91
2023/11/23 00:31:05;;;;;;;24.05;15.27;;;10.30;99.90;;;;;;5047894;28;20029;-90
2023/11/23 00:33:31;;;;;;;27.90;16.17;;;9.20;99.90;;;;;;5045005;28;20045;-91
2023/11/23 00:35:57;;;;;;;31.33;14.73;;;9.60;99.90;;;;;;5032872;28;20025;-91
2023/11/23 00:38:22;;;;;;;22.88;13.95;;;9.30;99.90;;;;;;5041997;28;20025;-90
2023/11/23 00:40:48;;;;;;;24.63;16.38;;;9.20;99.90;;;;;;5048172;28;20033;-90
2023/11/23 00:43:13;;;;;;;28.08;14.30;;;9.20;99.90;;;;;;5042229;28;20041;-90
2023/11/23 00:45:39;;;;;;;27.30;14.10;;;9.30;99.90;;;;;;5033077;28;20028;-91
2023/11/23 00:48:05;;;;;;;24.02;13.75;;;9.20;99.90;;;;;;5039456;28;20533;-90
2023/11/23 00:50:32;;;;;;;23.90;14.55;;;9.30;99.90;;;;;;5040023;28;20113;-90
2023/11/23 00:52:57;;;;;;;22.15;13.35;;;9.30;99.90;;;;;;5017602;28;20060;-91
2023/11/23 00:55:23;;;;;;;24.48;13.18;;;9.30;99.90;;;;;;5017461;28;20481;-91
2023/11/23 00:57:48;;;;;;;20.52;12.75;;;9.30;99.90;;;;;;5016765;28;20025;-92
2023/11/23 01:00:16;;;;;;;17.95;12.18;;;9.40;99.90;;;;;;5017255;28;20037;-91
2023/11/23 01:02:43;;;;;;;20.73;13.10;;;9.40;99.90;;;;;;5024447;28;20030;-90
2023/11/23 01:05:11;;;;;;;22.50;12.38;;;9.40;99.90;;;;;;5035351;28;20030;-90
2023/11/23 01:07:38;;;;;;;16.27;11.55;;;9.40;99.90;;;;;;5022347;28;20045;-90
2023/11/23 01:10:07;;;;;;;19.58;11.52;;;9.40;99.90;;;;;;5018805;28;20492;-91
2023/11/23 01:12:33;;;;;;;17.52;10.57;;;9.40;99.90;;;;;;5027731;28;20032;-90
2023/11/23 01:14:58;;;;;;;25.60;10.60;;;9.50;99.90;;;;;;5037081;28;20025;-91
2023/11/23 01:17:24;;;;;;;17.35;10.00;;;9.50;99.90;;;;;;5036354;28;20401;-91
2023/11/23 01:19:50;;;;;;;23.05;10.50;;;9.60;99.90;;;;;;5036273;28;20026;-91
2023/11/23 01:22:16;;;;;;;22.90;10.07;;;9.70;99.90;;;;;;5036438;28;20539;-91
2023/11/23 01:24:43;;;;;;;19.83;10.77;;;9.60;99.90;;;;;;5036471;28;20112;-92
2023/11/23 01:27:08;;;;;;;28.20;9.65;;;9.70;99.90;;;;;;5036795;28;20422;-91
2023/11/23 01:29:34;;;;;;;15.70;9.15;;;10.40;99.90;;;;;;5036318;28;20017;-91
2023/11/23 01:32:00;;;;;;;15.27;9.13;;;9.70;99.90;;;;;;5034814;28;20037;-91
2023/11/23 01:34:26;;;;;;;21.67;9.82;;;10.00;99.90;;;;;;5025270;28;20401;-90
2023/11/23 01:36:52;;;;;;;17.73;9.95;;;9.70;99.90;;;;;;5036008;28;20045;-92
2023/11/23 01:39:18;;;;;;;17.40;9.65;;;9.80;99.90;;;;;;5036461;28;20049;-89
2023/11/23 01:41:44;;;;;;;15.15;8.93;;;10.20;99.90;;;;;;5036350;28;20079;-91
2023/11/23 01:44:11;;;;;;;11.73;8.77;;;9.80;99.90;;;;;;5036431;28;20029;-90
2023/11/23 01:46:37;;;;;;;14.13;9.60;;;9.80;99.90;;;;;;5035350;28;20037;-91
2023/11/23 01:49:03;;;;;;;20.17;9.50;;;9.80;99.90;;;;;;5036205;28;20035;-91
2023/11/23 01:51:29;;;;;;;20.00;9.40;;;9.80;99.90;;;;;;5042599;28;20064;-91
2023/11/23 01:53:57;;;;;;;13.95;8.75;;;9.80;99.90;;;;;;5046052;28;20034;-91
2023/11/23 01:56:26;;;;;;;18.63;8.57;;;9.70;99.90;;;;;;5052103;28;20100;-91
2023/11/23 01:58:52;;;;;;;19.92;8.65;;;9.80;99.90;;;;;;5072481;28;20005;-91
2023/11/23 02:01:18;;;;;;;20.00;9.05;;;9.80;99.90;;;;;;5056206;28;20107;-90
2023/11/23 02:03:44;;;;;;;17.70;8.90;;;9.80;99.90;;;;;;5055763;28;20033;-91
2023/11/23 02:06:11;;;;;;;26.08;10.25;;;10.20;99.90;;;;;;5056051;28;20044;-92
2023/11/23 02:08:39;;;;;;;16.23;9.27;;;9.80;99.90;;;;;;5055513;28;20029;-91
2023/11/23 02:11:04;;;;;;;16.73;9.48;;;10.10;99.90;;;;;;5055598;28;20025;-89
2023/11/23 02:13:31;;;;;;;12.82;8.38;;;9.70;99.90;;;;;;5054467;28;20036;-90
2023/11/23 02:15:56;;;;;;;11.82;8.75;;;9.70;99.90;;;;;;5043649;28;20032;-89
2023/11/23 02:18:22;;;;;;;14.93;10.07;;;10.30;99.90;;;;;;5035083;28;20029;-91
2023/11/23 02:20:47;;;;;;;14.93;9.10;;;9.70;99.90;;;;;;5034044;28;20057;-90
2023/11/23 02:23:13;;;;;;;16.40;8.60;;;9.70;99.90;;;;;;5035460;28;20021;-90
2023/11/23 02:25:38;;;;;;;9.32;7.03;;;9.70;99.90;;;;;;5035303;28;20441;-91
2023/11/23 02:28:06;;;;;;;10.68;5.97;;;9.70;99.90;;;;;;5035017;28;20044;-91
2023/11/23 02:30:32;;;;;;;13.80;5.47;;;9.70;99.90;;;;;;5035697;28;20022;-90
2023/11/23 02:33:01;;;;;;;19.88;5.25;;;9.70;99.90;;;;;;5040109;28;20028;-91
2023/11/23 02:35:26;;;;;;;15.98;5.28;;;9.60;99.90;;;;;;5059413;28;20033;-90
2023/11/23 02:37:52;;;;;;;16.15;4.85;;;10.40;99.90;;;;;;5052850;28;20099;-90
2023/11/23 02:40:18;;;;;;;20.45;4.80;;;9.70;99.90;;;;;;5050312;28;20025;-89
2023/11/23 02:42:44;;;;;;;11.70;5.10;;;10.30;99.90;;;;;;5051904;28;20033;-90
2023/11/23 02:45:10;;;;;;;18.17;4.47;;;9.50;99.90;;;;;;5036115;28;20100;-91
2023/11/23 02:47:37;;;;;;;22.17;5.18;;;9.60;99.90;;;;;;5035268;28;20034;-90
2023/11/23 02:50:04;;;;;;;17.98;5.47;;;9.70;99.90;;;;;;5034754;28;20104;-89
2023/11/23 02:52:30;;;;;;;14.65;4.53;;;9.60;99.90;;;;;;5064948;28;20041;-89
2023/11/23 02:54:56;;;;;;;22.75;4.28;;;9.70;99.90;;;;;;5069411;28;20478;-91
2023/11/23 02:57:25;;;;;;;10.60;4.53;;;10.30;99.90;;;;;;5047046;28;20055;-90
2023/11/23 02:59:50;;;;;;;24.35;4.95;;;10.50;99.90;;;;;;5052257;28;20021;-90
2023/11/23 03:02:16;;;;;;;13.63;4.15;;;10.10;99.90;;;;;;5054399;28;20491;-90
2023/11/23 03:04:42;;;;;;;18.25;4.28;;;10.80;99.90;;;;;;5054416;28;20437;-90
2023/11/23 03:07:08;;;;;;;18.77;4.20;;;9.70;99.90;;;;;;5054534;28;20094;-90
2023/11/23 03:09:37;;;;;;;10.70;4.18;;;9.80;99.90;;;;;;5054087;28;20025;-90
2023/11/23 03:12:03;;;;;;;13.52;4.32;;;10.60;99.90;;;;;;5053949;28;20025;-90
2023/11/23 03:14:34;;;;;;;19.73;4.68;;;9.70;99.90;;;;;;5054622;28;20136;-91
2023/11/23 03:17:03;;;;;;;19.48;4.82;;;9.70;99.90;;;;;;5054047;28;20029;-92
2023/11/23 03:19:29;;;;;;;10.68;3.60;;;9.70;99.90;;;;;;5045543;28;20473;-91
2023/11/23 03:22:32;;;;;;;9.02;4.05;;;10.80;99.90;;;;;;5054457;28;20043;-90
2023/11/23 03:25:10;;;;;;;13.55;4.30;;;9.80;99.90;;;;;;5053531;28;20507;-90
2023/11/23 03:27:37;;;;;;;7.00;4.07;;;9.40;99.90;;;;;;5054433;28;20033;-91
2023/11/23 03:30:05;;;;;;;10.93;4.47;;;9.80;99.90;;;;;;5054009;28;20028;-91
2023/11/23 03:32:39;;;;;;;12.05;4.70;;;9.80;99.90;;;;;;5020416;28;20037;-91
2023/11/23 03:35:16;;;;;;;17.33;5.40;;;10.40;99.90;;;;;;5054318;28;20418;-91
2023/11/23 03:37:47;;;;;;;12.40;4.00;;;9.90;99.90;;;;;;5052611;28;20059;-91
2023/11/23 03:40:25;;;;;;;9.88;3.63;;;9.80;99.90;;;;;;5042734;28;20109;-91
2023/11/23 03:42:51;;;;;;;15.07;3.85;;;9.80;99.90;;;;;;5054133;28;20048;-91
2023/11/23 03:45:18;;;;;;;10.20;3.55;;;10.60;99.90;;;;;;5054687;28;20031;-90
2023/11/23 03:47:45;;;;;;;12.80;3.38;;;10.70;99.90;;;;;;5075605;28;20041;-90
2023/11/23 03:50:11;;;;;;;6.72;2.92;;;9.80;99.90;;;;;;5068512;28;20480;-90
2023/11/23 03:52:39;;;;;;;20.10;4.78;;;9.90;99.90;;;;;;5053229;28;20103;-90
2023/11/23 03:55:05;;;;;;;11.88;3.35;;;9.90;99.90;;;;;;5053869;28;20027;-90
2023/11/23 03:57:31;;;;;;;13.38;3.45;;;9.90;99.90;;;;;;5053660;28;20033;-90
2023/11/23 04:00:00;;;;;;;13.57;3.38;;;10.50;99.90;;;;;;5053187;28;20055;-92
2023/11/23 04:02:26;;;;;;;14.65;3.58;;;10.40;99.90;;;;;;5049686;28;20044;-91
2023/11/23 04:05:01;;;;;;;12.95;2.97;;;10.60;99.90;;;;;;5053439;28;20572;-91
2023/11/23 04:07:33;;;;;;;9.98;3.45;;;11.00;99.90;;;;;;5053188;28;20033;-91
2023/11/23 04:09:59;;;;;;;19.83;4.07;;;9.90;99.90;;;;;;5054205;28;20470;-91
2023/11/23 04:12:24;;;;;;;11.52;4.28;;;9.90;99.90;;;;;;5054124;28;20101;-92
2023/11/23 04:14:53;;;;;;;11.40;3.38;;;10.50;99.90;;;;;;5052861;28;20518;-91
2023/11/23 04:17:19;;;;;;;12.27;3.65;;;10.40;99.90;;;;;;5053522;28;20036;-92
2023/11/23 04:19:54;;;;;;;9.88;3.33;;;10.10;99.90;;;;;;5062744;28;20028;-90
2023/11/23 04:22:21;;;;;;;8.38;3.47;;;10.40;99.90;;;;;;5069262;28;20089;-91
2023/11/23 04:25:02;;;;;;;9.35;3.53;;;10.80;99.90;;;;;;5048497;28;20047;-91
2023/11/23 04:27:29;;;;;;;13.43;3.80;;;11.50;99.90;;;;;;5059299;28;20033;-91
2023/11/23 04:29:55;;;;;;;10.00;3.92;;;10.80;99.90;;;;;;5077969;28;20481;-89
2023/11/23 04:32:33;;;;;;;12.10;3.80;;;10.90;99.90;;;;;;5077027;28;20061;-90
2023/11/23 04:34:59;;;;;;;9.05;3.35;;;10.00;99.90;;;;;;5057210;28;20025;-91
2023/11/23 04:37:32;;;;;;;6.50;3.38;;;11.00;99.90;;;;;;5057614;28;20105;-90
2023/11/23 04:40:06;;;;;;;8.38;3.72;;;10.70;99.90;;;;;;5058889;28;20401;-90
2023/11/23 04:42:35;;;;;;;12.10;3.33;;;10.10;99.90;;;;;;5067407;28;20056;-90
2023/11/23 04:45:00;;;;;;;8.77;3.13;;;9.90;99.90;;;;;;5046366;28;20028;-90
2023/11/23 04:47:26;;;;;;;7.97;2.70;;;10.80;99.90;;;;;;5037526;28;20093;-90
2023/11/23 04:49:52;;;;;;;15.48;3.50;;;10.90;99.90;;;;;;5036279;28;20523;-91
2023/11/23 04:52:37;;;;;;;12.85;3.08;;;10.70;99.90;;;;;;5037210;28;20061;-90
2023/11/23 04:55:06;;;;;;;10.75;3.38;;;10.70;99.90;;;;;;5036894;28;20033;-90
2023/11/23 04:57:41;;;;;;;8.60;2.92;;;9.90;99.90;;;;;;5037023;28;20034;-90
2023/11/23 05:00:15;;;;;;;14.10;3.70;;;9.80;99.90;;;;;;5036942;28;20024;-91
2023/11/23 05:02:43;;;;;;;14.63;4.45;;;9.90;99.90;;;;;;5036654;28;20104;-91
2023/11/23 05:05:12;;;;;;;16.20;3.90;;;9.80;99.90;;;;;;5039315;28;20080;-91
2023/11/23 05:07:39;;;;;;;12.45;3.53;;;11.10;99.90;;;;;;5045248;28;20038;-92
2023/11/23 05:10:08;;;;;;;9.60;3.50;;;10.80;99.90;;;;;;5036629;28;20045;-92
2023/11/23 05:12:34;;;;;;;15.00;3.88;;;9.80;99.90;;;;;;5036660;28;20049;-89
2023/11/23 05:15:06;;;;;;;18.33;5.22;;;10.60;99.90;;;;;;5036936;28;20029;-91
2023/11/23 05:17:38;;;;;;;10.65;3.40;;;9.90;99.90;;;;;;5036586;28;20025;-92
2023/11/23 05:20:04;;;;;;;11.27;4.05;;;10.60;99.90;;;;;;5037331;28;20025;-92
2023/11/23 05:22:30;;;;;;;13.35;3.30;;;9.80;99.90;;;;;;5036702;28;20024;-91
2023/11/23 05:25:10;;;;;;;10.50;3.70;;;10.70;99.90;;;;;;5039534;28;20029;-92
2023/11/23 05:27:36;;;;;;;10.77;3.97;;;9.80;99.90;;;;;;5046154;28;20029;-92
2023/11/23 05:30:02;;;;;;;12.98;3.08;;;10.00;99.90;;;;;;5054067;28;20025;-93
2023/11/23 05:32:31;;;;;;;6.68;3.47;;;9.80;99.90;;;;;;5057057;28;20036;-92
2023/11/23 05:34:56;;;;;;;12.75;3.55;;;9.10;99.90;;;;;;5059157;28;20032;-92
2023/11/23 05:37:22;;;;;;;10.07;3.22;;;10.40;99.90;;;;;;5077961;28;20038;-92
2023/11/23 05:39:49;;;;;;;10.93;3.15;;;10.70;99.90;;;;;;5070661;28;20070;-91
2023/11/23 05:42:14;;;;;;;18.35;4.45;;;10.30;99.90;;;;;;5057003;28;20101;-93
2023/11/23 05:44:49;;;;;;;13.18;3.85;;;10.70;99.90;;;;;;5066105;28;20037;-92
2023/11/23 05:47:23;;;;;;;19.63;3.92;;;9.70;99.90;;;;;;5077670;28;20033;-91
2023/11/23 05:49:49;;;;;;;8.68;4.05;;;10.50;99.90;;;;;;5070302;28;20023;-91
2023/11/23 05:52:34;;;;;;;19.02;4.10;;;9.80;99.90;;;;;;5075614;28;20049;-90
2023/11/23 05:55:03;;;;;;;18.73;3.92;;;9.70;99.90;;;;;;5067989;28;20029;-90
2023/11/23 05:57:28;;;;;;;14.43;4.38;;;10.40;99.90;;;;;;5057675;28;20033;-92
2023/11/23 05:59:54;;;;;;;11.35;3.72;;;10.70;99.90;;;;;;5055840;28;20088;-91
2023/11/23 06:02:22;;;;;;;13.60;4.18;;;10.70;99.90;;;;;;5055538;28;20351;-88
2023/11/23 06:04:48;;;;;;;10.85;3.78;;;9.50;99.90;;;;;;5055564;28;20029;-90
2023/11/23 06:07:15;;;;;;;6.85;3.67;;;10.70;99.90;;;;;;5056996;28;20059;-92
2023/11/23 06:09:42;;;;;;;9.15;3.63;;;10.80;99.90;;;;;;5050714;28;20033;-91
2023/11/23 06:12:08;;;;;;;10.02;3.30;;;10.70;99.90;;;;;;5048345;28;20036;-91
2023/11/23 06:14:36;;;;;;;13.77;3.38;;;11.10;99.90;;;;;;5055229;28;20489;-89
2023/11/23 06:17:03;;;;;;;6.72;2.97;;;9.80;99.90;;;;;;5055764;28;20473;-89
2023/11/23 06:19:29;;;;;;;10.65;3.55;;;9.90;99.90;;;;;;5055044;28;20086;-93
2023/11/23 06:21:55;;;;;;;7.78;3.42;;;9.90;99.90;;;;;;5056106;28;20029;-92
2023/11/23 06:24:22;;;;;;;12.60;4.07;;;9.90;99.90;;;;;;5056322;28;20107;-92
2023/11/23 06:26:48;;;;;;;11.07;3.42;;;10.80;99.90;;;;;;5053537;28;20045;-91
2023/11/23 06:29:15;;;;;;;16.45;3.80;;;10.00;99.90;;;;;;5065760;28;20036;-90
2023/11/23 06:31:40;;;;;;;17.38;3.65;;;10.00;99.90;;;;;;5069155;28;20040;-91
2023/11/23 06:34:06;;;;;;;17.95;3.60;;;10.30;99.90;;;;;;5065201;28;20482;-91
2023/11/23 06:36:31;;;;;;;15.50;3.70;;;10.00;99.90;;;;;;5058581;28;20053;-92
2023/11/23 06:38:57;;;;;;;6.85;3.85;;;10.40;99.90;;;;;;5064330;28;20017;-92
2023/11/23 06:41:23;;;;;;;11.30;2.97;;;10.00;99.90;;;;;;5055908;28;20082;-91
2023/11/23 06:43:49;;;;;;;15.07;2.88;;;10.00;99.90;;;;;;5062794;28;20060;-89
2023/11/23 06:46:16;;;;;;;8.85;3.50;;;10.10;99.90;;;;;;5055294;28;20029;-88
2023/11/23 06:48:44;;;;;;;11.02;2.70;;;10.10;99.90;;;;;;5054068;28;20041;-89
2023/11/23 06:51:09;;;;;;;13.80;3.47;;;10.40;99.90;;;;;;5055248;28;20033;-90
2023/11/23 06:53:43;;;;;;;11.65;3.25;;;10.00;99.90;;;;;;5023913;28;20034;-90
2023/11/23 06:56:12;;;;;;;14.38;3.17;;;10.10;99.90;;;;;;5029598;28;20057;-91
2023/11/23 06:58:39;;;;;;;11.77;3.40;;;10.00;99.90;;;;;;5033489;28;20033;-90
2023/11/23 07:01:04;;;;;;;8.50;3.65;;;10.00;99.90;;;;;;5034128;28;20420;-90
2023/11/23 07:03:30;;;;;;;13.75;3.53;;;10.10;99.90;;;;;;5034502;28;20032;-90
2023/11/23 07:05:55;;;;;;;13.20;3.20;;;10.10;99.90;;;;;;5033392;28;20018;-90
2023/11/23 07:08:21;;;;;;;12.82;4.13;;;10.10;99.90;;;;;;5034137;28;20554;-90
2023/11/23 07:10:46;;;;;;;11.50;3.60;;;9.70;99.90;;;;;;5034561;28;20489;-92
2023/11/23 07:13:12;;;;;;;12.77;3.50;;;10.00;99.90;;;;;;5033931;28;20489;-90
2023/11/23 07:15:37;;;;;;;13.18;3.28;;;10.00;99.90;;;;;;5012865;28;20351;-90
2023/11/23 07:18:03;;;;;;;11.30;3.50;;;11.00;99.90;;;;;;5015189;28;20072;-89
2023/11/23 07:20:29;;;;;;;11.55;3.75;;;10.60;99.90;;;;;;5014794;28;20030;-90
2023/11/23 07:22:54;;;;;;;11.55;4.30;;;10.00;99.90;;;;;;5038204;28;20024;-89
2023/11/23 07:25:20;;;;;;;9.43;3.78;;;10.10;99.90;;;;;;5039671;28;20478;-89
2023/11/23 07:27:47;;;;;;;15.57;3.92;;;10.00;99.90;;;;;;5034341;28;20044;-90
2023/11/23 07:30:13;;;;;;;11.38;3.40;;;10.00;99.90;;;;;;5034141;28;20017;-89
2023/11/23 07:32:38;;;;;;;13.32;3.45;;;10.00;99.90;;;;;;5016793;28;20034;-89
2023/11/23 07:35:04;;;;;;;12.20;3.25;;;10.00;99.90;;;;;;5023701;28;20097;-89
2023/11/23 07:37:31;;;;;;;19.20;3.83;;;10.00;99.90;;;;;;5025049;28;20033;-89
2023/11/23 07:40:03;;;;;;;14.25;3.10;;;10.40;99.90;;;;;;5014641;28;20080;-90
2023/11/23 07:42:28;;;;;;;15.90;3.75;;;10.00;99.90;;;;;;5029868;28;20462;-90
2023/11/23 07:44:54;;;;;;;13.15;3.28;;;10.20;99.90;;;;;;5033473;28;20045;-89
2023/11/23 07:47:21;;;;;;;16.60;4.30;;;10.00;99.90;;;;;;5033999;28;20035;-90
2023/11/23 07:49:49;;;;;;;9.70;3.30;;;10.30;99.90;;;;;;5033610;28;20026;-90
2023/11/23 07:52:15;;;;;;;13.63;4.03;;;10.00;99.90;;;;;;5024254;28;20057;-90
2023/11/23 07:54:41;;;;;;;12.23;3.42;;;10.40;99.90;;;;;;5038820;28;20024;-90
2023/11/23 07:57:06;;;;;;;7.55;3.00;;;10.00;99.90;;;;;;5047746;28;20373;-89
2023/11/23 07:59:36;;;;;;;8.77;3.10;;;10.50;99.90;;;;;;5041099;28;20104;-91
2023/11/23 08:02:02;;;;;;;12.27;3.50;;;10.00;99.90;;;;;;5033881;28;20133;-90
2023/11/23 08:04:34;;;;;;;15.10;3.28;;;10.00;99.90;;;;;;5034082;28;20077;-90
2023/11/23 08:07:08;;;;;;;9.95;3.50;;;10.00;99.90;;;;;;5043376;28;20377;-89
2023/11/23 08:09:40;;;;;;;19.80;4.15;;;9.60;99.90;;;;;;5054817;28;20044;-91
2023/11/23 08:12:14;;;;;;;7.43;3.88;;;10.00;99.90;;;;;;5045605;28;20032;-89
2023/11/23 08:14:40;;;;;;;15.73;3.47;;;10.10;99.90;;;;;;5060855;28;20380;-90
2023/11/23 08:17:05;;;;;;;9.27;2.70;;;10.10;99.90;;;;;;5061165;28;20021;-90
2023/11/23 08:19:37;;;;;;;10.25;3.15;;;10.40;99.90;;;;;;5075818;28;20032;-90
2023/11/23 08:22:12;;;;;;;10.52;3.47;;;10.80;99.90;;;;;;5067326;28;20029;-91
2023/11/23 08:24:41;;;;;;;5.85;2.40;;;10.40;99.90;;;;;;5057578;28;20081;-92
2023/11/23 08:27:16;;;;;;;10.00;3.22;;;10.10;99.90;;;;;;5062847;28;20088;-90
2023/11/23 08:29:48;;;;;;;20.42;4.38;;;11.00;99.90;;;;;;5053646;28;20029;-91
2023/11/23 08:32:19;;;;;;;13.77;3.17;;;9.80;99.90;;;;;;5043401;28;20409;-91
2023/11/23 08:34:52;;;;;;;13.70;3.28;;;11.20;99.90;;;;;;5033314;28;20072;-91
2023/11/23 08:37:20;;;;;;;20.00;3.85;;;10.30;99.90;;;;;;5033325;28;20025;-91
2023/11/23 08:39:47;;;;;;;15.20;3.38;;;10.00;99.90;;;;;;5033066;28;20045;-91
2023/11/23 08:42:12;;;;;;;6.65;3.00;;;10.70;99.90;;;;;;5033040;28;20473;-91
2023/11/23 08:44:38;;;;;;;14.68;3.10;;;10.50;99.90;;;;;;5033516;28;20033;-93
2023/11/23 08:47:04;;;;;;;13.02;3.78;;;11.30;99.90;;;;;;5036131;28;20112;-89
2023/11/23 08:49:31;;;;;;;11.73;3.65;;;11.00;99.90;;;;;;5053478;28;20029;-90
2023/11/23 08:51:57;;;;;;;13.48;3.65;;;10.90;99.90;;;;;;5057460;28;20140;-92
2023/11/23 08:54:23;;;;;;;13.02;3.80;;;11.40;99.90;;;;;;5056721;28;20028;-91
2023/11/23 08:56:48;;;;;;;17.85;4.20;;;10.40;99.90;;;;;;5055800;28;20021;-89
2023/11/23 08:59:14;;;;;;;13.13;4.38;;;10.40;99.90;;;;;;5050230;28;20037;-90
2023/11/23 09:01:40;;;;;;;22.60;5.55;;;10.40;99.90;;;;;;5065916;28;20032;-90
2023/11/23 09:04:05;;;;;;;14.73;4.82;;;10.40;99.90;;;;;;5070576;28;20021;-90
2023/11/23 09:06:31;;;;;;;10.75;3.75;;;10.40;99.90;;;;;;5064609;28;20029;-92
2023/11/23 09:09:00;;;;;;;12.32;4.28;;;10.80;99.90;;;;;;5052393;28;20486;-91
2023/11/23 09:11:26;;;;;;;17.42;3.90;;;10.40;99.90;;;;;;5065695;28;20029;-90
2023/11/23 09:13:52;;;;;;;19.65;3.97;;;10.50;99.90;;;;;;5068555;28;20031;-91
2023/11/23 09:16:18;;;;;;;16.58;3.97;;;10.50;99.90;;;;;;5057345;28;20036;-90
2023/11/23 09:18:50;;;;;;;17.95;4.43;;;10.50;99.90;;;;;;5056292;28;20032;-91
2023/11/23 09:21:22;;;;;;;12.35;4.85;;;10.50;99.90;;;;;;5054507;28;20021;-91
2023/11/23 09:23:53;;;;;;;10.30;3.25;;;10.60;99.90;;;;;;5036525;28;20021;-91
2023/11/23 09:26:22;;;;;;;;;;;10.70;99.90;;;;;;5036283;28;20449;-91
2023/11/23 09:28:53;;;;;;;14.73;4.45;;;9.90;99.90;;;;;;5036625;28;19912;-92
2023/11/23 09:31:19;;;;;;;12.52;3.53;;;11.50;99.90;;;;;;5049404;28;20037;-92
2023/11/23 09:33:44;;;;;;;10.40;3.55;;;10.80;99.90;;;;;;5036169;28;20028;-91
2023/11/23 09:36:11;;;;;;;18.48;4.43;;;11.80;99.90;;;;;;5054419;28;20090;-91
2023/11/23 09:38:37;;;;;;;10.30;3.67;;;11.20;99.90;;;;;;5047109;28;20028;-91
2023/11/23 09:41:10;;;;;;;14.60;3.30;;;10.90;99.90;;;;;;5039905;28;20029;-92
2023/11/23 09:43:42;;;;;;;17.55;4.00;;;11.30;99.90;;;;;;5118831;22;20076;-92
2023/11/23 09:46:11;;;;;;;12.55;3.38;;;11.00;99.90;;;;;;5064985;28;20056;-93
2023/11/23 09:48:39;;;;;;;10.02;3.40;;;11.80;99.90;;;;;;5061832;28;20068;-90
2023/11/23 09:56:41;;;;;;;15.68;3.58;;;12.10;99.90;;;;;;5034123;28;20096;-91
2023/11/23 09:59:07;;;;;;;13.80;3.22;;;12.00;99.90;;;;;;5037004;28;20025;-88
2023/11/23 10:01:43;;;;;;;11.55;3.88;;;12.40;99.90;;;;;;5041469;28;20032;-91
2023/11/23 10:04:09;;;;;;;12.00;2.70;;;11.30;99.90;;;;;;5050609;28;20026;-92
2023/11/23 10:06:36;;;;;;;13.90;3.50;;;12.50;99.90;;;;;;5051058;28;20057;-90
2023/11/23 10:09:01;;;;;;;8.48;2.30;;;11.80;99.90;;;;;;5032312;28;20089;-92
2023/11/23 10:11:28;;;;;;;10.75;2.30;;;11.60;99.90;;;;;;5025124;28;20026;-90
2023/11/23 10:13:54;;;;;;;17.98;3.05;;;11.70;99.90;;;;;;5022434;28;20077;-91
2023/11/23 10:16:19;;;;;;;6.65;2.30;;;12.70;99.90;;;;;;5016519;28;20053;-93
2023/11/23 10:18:46;;;;;;;14.52;2.97;;;12.30;99.90;;;;;;5017996;28;20026;-92
2023/11/23 10:21:12;;;;;;;9.32;2.50;;;12.70;99.90;;;;;;5033244;28;20021;-94
2023/11/23 10:23:43;;;;;;;6.45;2.42;;;11.90;99.90;;;;;;5036495;28;20377;-92
2023/11/23 10:26:10;;;;;;;8.60;2.08;;;12.00;99.90;;;;;;5036138;28;20392;-92
2023/11/23 10:28:49;;;;;;;11.90;2.50;;;11.10;99.90;;;;;;5027157;28;20657;-92
2023/11/23 10:31:21;;;;;;;13.50;3.08;;;13.20;99.90;;;;;;5016107;28;20545;-92
2023/11/23 10:33:47;;;;;;;14.43;3.55;;;12.00;99.90;;;;;;5014636;28;20038;-92
2023/11/23 10:36:14;;;;;;;12.43;3.05;;;12.20;99.90;;;;;;5016733;28;20054;-93
2023/11/23 10:38:40;;;;;;;10.07;2.40;;;12.80;99.90;;;;;;5016080;28;20036;-93
2023/11/23 10:41:16;;;;;;;9.68;3.08;;;13.50;99.90;;;;;;5015377;28;20030;-91
2023/11/23 10:43:42;;;;;;;7.90;2.22;;;12.70;99.90;;;;;;5015692;28;20034;-93
2023/11/23 10:46:17;;;;;;;7.63;2.10;;;13.20;99.90;;;;;;5015757;28;20030;-92
2023/11/23 10:48:44;;;;;;;3.67;1.48;;;13.00;99.90;;;;;;5031157;28;20053;-88
2023/11/23 10:51:11;;;;;;;5.97;1.85;;;12.20;99.90;;;;;;5013406;28;20026;-86
2023/11/23 10:53:41;;;;;;;9.02;1.83;;;12.90;99.90;;;;;;5032060;28;20052;-86
2023/11/23 10:56:17;;;;;;;11.77;2.45;;;12.30;99.90;;;;;;5021256;28;20049;-88
2023/11/23 10:58:52;;;;;;;9.90;2.40;;;11.60;99.90;;;;;;5035413;28;20089;-85
2023/11/23 11:01:21;;;;;;;12.45;2.45;;;13.20;99.90;;;;;;5035262;28;20025;-89
2023/11/23 11:03:58;;;;;;;6.82;2.35;;;12.50;99.90;;;;;;5033974;28;20033;-88
2023/11/23 11:06:38;;;;;;;5.80;2.03;;;12.30;99.90;;;;;;5043559;28;20029;-90
2023/11/23 11:09:14;;;;;;;5.20;2.33;;;11.50;99.90;;;;;;5054472;28;20052;-91
2023/11/23 11:11:53;;;;;;;8.73;2.15;;;12.30;99.90;;;;;;5042287;28;20064;-90
2023/11/23 11:14:18;;;;;;;10.25;2.38;;;12.20;99.90;;;;;;5034527;28;20022;-88
2023/11/23 11:16:45;;;;;;;10.50;1.92;;;12.20;99.90;;;;;;5034446;28;20045;-89
2023/11/23 11:19:13;;;;;;;8.30;2.63;;;12.40;99.90;;;;;;5030761;28;20091;-91
2023/11/23 11:21:47;;;;;;;5.05;1.70;;;12.70;99.90;;;;;;5014312;28;20108;-90
2023/11/23 11:24:30;;;;;;;13.77;2.85;;;12.30;99.90;;;;;;5015270;28;20052;-91
2023/11/23 11:27:03;;;;;;;6.43;1.83;;;12.30;99.90;;;;;;5014911;28;20044;-91
2023/11/23 11:29:30;;;;;;;7.18;2.00;;;12.20;99.90;;;;;;5014589;28;20025;-91
2023/11/23 11:31:57;;;;;;;10.02;3.22;;;12.30;99.90;;;;;;5013382;28;20026;-90
2023/11/23 11:34:26;;;;;;;7.00;2.47;;;12.30;99.90;;;;;;5038336;28;20025;-90
2023/11/23 11:36:59;;;;;;;9.57;2.67;;;12.70;99.90;;;;;;5053511;28;20029;-89
2023/11/23 11:39:35;;;;;;;9.32;3.63;;;12.30;99.90;;;;;;5025643;28;20030;-93
2023/11/23 11:42:02;;;;;;;14.80;2.10;;;12.30;99.90;;;;;;5053177;28;20039;-92
2023/11/23 11:44:33;;;;;;;9.05;2.13;;;12.30;99.90;;;;;;5037472;28;20029;-92
2023/11/23 11:46:58;;;;;;;8.75;2.63;;;12.40;99.90;;;;;;5053950;28;20358;-92
2023/11/23 11:49:25;;;;;;;13.55;3.30;;;12.50;99.90;;;;;;5068385;28;20039;-91
2023/11/23 11:51:51;;;;;;;11.00;2.63;;;12.60;99.90;;;;;;5076357;28;20020;-92
2023/11/23 11:54:21;;;;;;;5.93;2.30;;;12.80;99.90;;;;;;5079029;28;20040;-93
2023/11/23 11:56:48;;;;;;;9.10;2.85;;;12.40;99.90;;;;;;5087827;28;20027;-94
2023/11/23 11:59:17;;;;;;;6.68;2.53;;;12.40;99.90;;;;;;5068040;28;20082;-92
2023/11/23 12:01:44;;;;;;;9.43;2.47;;;12.40;99.90;;;;;;5059189;28;20082;-91
2023/11/23 12:04:16;;;;;;;7.63;2.30;;;12.40;99.90;;;;;;5058579;28;20049;-92
2023/11/23 12:06:44;;;;;;;12.18;2.40;;;13.00;99.90;;;;;;5051503;28;20018;-92
2023/11/23 12:09:23;;;;;;;15.27;2.92;;;13.00;99.90;;;;;;5053150;28;20115;-91
2023/11/23 12:12:13;;;;;;;12.13;3.25;;;13.00;99.90;;;;;;5045848;28;20017;-91
2023/11/23 12:14:38;;;;;;;10.80;3.13;;;12.50;99.90;;;;;;5048069;28;20508;-90
2023/11/23 12:17:11;;;;;;;16.52;3.35;;;12.50;99.90;;;;;;5039905;28;20108;-90
2023/11/23 12:19:37;;;;;;;11.10;2.78;;;12.50;99.90;;;;;;5035898;28;20064;-91
2023/11/23 12:22:02;;;;;;;13.43;2.97;;;13.10;99.90;;;;;;5039963;28;20029;-91
2023/11/23 12:24:30;;;;;;;19.10;3.47;;;12.50;99.90;;;;;;5056497;28;20036;-93
2023/11/23 12:26:56;;;;;;;20.42;3.30;;;13.30;99.90;;;;;;5055716;28;20051;-90
2023/11/23 12:29:23;;;;;;;18.30;3.03;;;12.60;99.90;;;;;;5056307;28;20032;-92
2023/11/23 12:31:50;;;;;;;13.25;2.90;;;12.50;99.90;;;;;;5055970;28;20024;-90
2023/11/23 12:34:16;;;;;;;16.98;3.22;;;12.70;99.90;;;;;;5054888;28;20025;-91
2023/11/23 12:36:43;;;;;;;11.57;3.30;;;12.60;99.90;;;;;;5055272;28;20029;-90
2023/11/23 12:39:09;;;;;;;14.73;3.08;;;12.60;99.90;;;;;;5054293;28;20029;-91
2023/11/23 12:41:35;;;;;;;14.27;3.38;;;12.60;99.90;;;;;;5054447;28;20025;-91
2023/11/23 12:44:01;;;;;;;16.92;3.58;;;12.70;99.90;;;;;;5047881;28;20079;-92
2023/11/23 12:46:26;;;;;;;18.33;3.20;;;13.30;99.90;;;;;;5060774;28;20012;-91
2023/11/23 12:48:52;;;;;;;14.85;2.90;;;13.70;99.90;;;;;;5039415;28;20262;-92
2023/11/23 12:51:18;;;;;;;14.40;2.78;;;13.60;99.90;;;;;;5038851;28;20017;-92